sensor_id;sensor_type;location;lat;lon;timestamp;pressure;altitude;pressure_sealevel;temperature;humidity
63708;BME280;67643;-34.198;22.084;2023-02-15T00:01:22;99826.15;;;25.59;49.83
63708;BME280;67643;-34.198;22.084;2023-02-15T00:03:51;99817.57;;;25.14;49.79
63708;BME280;67643;-34.198;22.084;2023-02-15T00:06:20;99813.60;;;25.67;49.58
63708;BME280;67643;-34.198;22.084;2023-02-15T00:08:49;99810.81;;;24.85;50.30
63708;BME280;67643;-34.198;22.084;2023-02-15T00:11:18;99806.78;;;25.23;50.03
63708;BME280;67643;-34.198;22.084;2023-02-15T00:13:47;99800.47;;;25.34;50.24
63708;BME280;67643;-34.198;22.084;2023-02-15T00:16:15;99794.33;;;24.89;50.23
63708;BME280;67643;-34.198;22.084;2023-02-15T00:18:44;99790.96;;;24.83;50.33
63708;BME280;67643;-34.198;22.084;2023-02-15T00:21:14;99789.54;;;24.90;50.26
63708;BME280;67643;-34.198;22.084;2023-02-15T00:23:43;99786.07;;;24.86;50.34
63708;BME280;67643;-34.198;22.084;2023-02-15T00:26:12;99783.18;;;25.09;49.93
63708;BME280;67643;-34.198;22.084;2023-02-15T00:28:40;99779.19;;;25.06;49.96
63708;BME280;67643;-34.198;22.084;2023-02-15T00:31:10;99775.41;;;25.05;49.95
63708;BME280;67643;-34.198;22.084;2023-02-15T00:33:39;99771.46;;;25.19;49.55
63708;BME280;67643;-34.198;22.084;2023-02-15T00:36:09;99769.02;;;25.46;49.86
63708;BME280;67643;-34.198;22.084;2023-02-15T00:38:39;99768.25;;;24.78;50.37
63708;BME280;67643;-34.198;22.084;2023-02-15T00:41:09;99767.80;;;25.02;49.90
63708;BME280;67643;-34.198;22.084;2023-02-15T00:43:38;99765.94;;;24.94;50.45
63708;BME280;67643;-34.198;22.084;2023-02-15T00:46:06;99763.34;;;24.93;50.09
63708;BME280;67643;-34.198;22.084;2023-02-15T00:48:36;99760.51;;;25.45;49.59
63708;BME280;67643;-34.198;22.084;2023-02-15T00:51:04;99759.16;;;25.28;49.44
63708;BME280;67643;-34.198;22.084;2023-02-15T00:53:32;99754.09;;;25.17;49.13
63708;BME280;67643;-34.198;22.084;2023-02-15T00:56:01;99751.88;;;25.58;48.89
63708;BME280;67643;-34.198;22.084;2023-02-15T00:58:29;99746.16;;;25.65;48.76
63708;BME280;67643;-34.198;22.084;2023-02-15T01:01:03;99745.35;;;25.65;48.79
63708;BME280;67643;-34.198;22.084;2023-02-15T01:03:33;99742.87;;;25.47;49.00
63708;BME280;67643;-34.198;22.084;2023-02-15T01:06:02;99737.36;;;25.70;48.56
63708;BME280;67643;-34.198;22.084;2023-02-15T01:08:32;99735.43;;;25.30;48.84
63708;BME280;67643;-34.198;22.084;2023-02-15T01:11:05;99732.69;;;26.11;48.01
63708;BME280;67643;-34.198;22.084;2023-02-15T01:13:34;99730.99;;;25.45;49.04
63708;BME280;67643;-34.198;22.084;2023-02-15T01:16:03;99728.44;;;25.72;48.59
63708;BME280;67643;-34.198;22.084;2023-02-15T01:18:33;99725.98;;;25.42;49.08
63708;BME280;67643;-34.198;22.084;2023-02-15T01:21:10;99722.78;;;25.61;48.70
63708;BME280;67643;-34.198;22.084;2023-02-15T01:23:40;99718.70;;;25.58;48.80
63708;BME280;67643;-34.198;22.084;2023-02-15T01:26:09;99715.30;;;25.78;48.43
63708;BME280;67643;-34.198;22.084;2023-02-15T01:28:39;99712.63;;;25.70;48.60
63708;BME280;67643;-34.198;22.084;2023-02-15T01:31:08;99711.93;;;25.46;49.06
63708;BME280;67643;-34.198;22.084;2023-02-15T01:33:38;99708.66;;;25.41;49.16
63708;BME280;67643;-34.198;22.084;2023-02-15T01:36:07;99700.89;;;25.07;49.79
63708;BME280;67643;-34.198;22.084;2023-02-15T01:38:36;99695.09;;;25.22;49.45
63708;BME280;67643;-34.198;22.084;2023-02-15T01:41:05;99695.84;;;25.57;48.83
63708;BME280;67643;-34.198;22.084;2023-02-15T01:43:41;99689.82;;;25.14;49.36
63708;BME280;67643;-34.198;22.084;2023-02-15T01:46:11;99682.89;;;25.43;48.50
63708;BME280;67643;-34.198;22.084;2023-02-15T01:48:45;99680.51;;;25.81;48.59
63708;BME280;67643;-34.198;22.084;2023-02-15T01:51:15;99679.61;;;25.16;48.97
63708;BME280;67643;-34.198;22.084;2023-02-15T01:53:48;99678.19;;;25.05;49.05
63708;BME280;67643;-34.198;22.084;2023-02-15T01:56:22;99676.55;;;24.83;48.99
63708;BME280;67643;-34.198;22.084;2023-02-15T01:58:54;99676.94;;;25.10;49.10
63708;BME280;67643;-34.198;22.084;2023-02-15T02:01:23;99681.89;;;25.12;49.06
63708;BME280;67643;-34.198;22.084;2023-02-15T02:03:59;99677.97;;;26.05;48.23
63708;BME280;67643;-34.198;22.084;2023-02-15T02:06:29;99682.24;;;25.15;48.82
63708;BME280;67643;-34.198;22.084;2023-02-15T02:08:57;99683.43;;;24.86;49.28
63708;BME280;67643;-34.198;22.084;2023-02-15T02:11:25;99685.06;;;25.07;48.46
63708;BME280;67643;-34.198;22.084;2023-02-15T02:13:54;99684.77;;;25.36;48.46
63708;BME280;67643;-34.198;22.084;2023-02-15T02:16:27;99683.78;;;25.79;47.75
63708;BME280;67643;-34.198;22.084;2023-02-15T02:19:19;99679.53;;;25.37;48.41
63708;BME280;67643;-34.198;22.084;2023-02-15T02:23:58;99675.09;;;25.82;48.86
63708;BME280;67643;-34.198;22.084;2023-02-15T02:26:58;99669.55;;;25.54;48.08
63708;BME280;67643;-34.198;22.084;2023-02-15T02:30:39;99666.17;;;24.74;48.76
63708;BME280;67643;-34.198;22.084;2023-02-15T02:33:40;99661.01;;;25.19;48.01
63708;BME280;67643;-34.198;22.084;2023-02-15T02:36:17;99657.76;;;25.28;48.12
63708;BME280;67643;-34.198;22.084;2023-02-15T02:38:59;99660.00;;;25.14;48.28
63708;BME280;67643;-34.198;22.084;2023-02-15T02:41:36;99655.20;;;25.61;47.45
63708;BME280;67643;-34.198;22.084;2023-02-15T02:44:12;99655.39;;;25.35;47.78
63708;BME280;67643;-34.198;22.084;2023-02-15T02:46:51;99656.69;;;25.02;47.86
63708;BME280;67643;-34.198;22.084;2023-02-15T02:49:33;99658.79;;;25.14;48.07
63708;BME280;67643;-34.198;22.084;2023-02-15T02:52:04;99660.48;;;25.01;48.14
63708;BME280;67643;-34.198;22.084;2023-02-15T02:54:34;99666.85;;;25.33;47.75
63708;BME280;67643;-34.198;22.084;2023-02-15T02:57:05;99667.66;;;25.25;47.79
63708;BME280;67643;-34.198;22.084;2023-02-15T02:59:40;99669.59;;;25.23;47.72
63708;BME280;67643;-34.198;22.084;2023-02-15T03:02:15;99668.61;;;25.24;47.72
63708;BME280;67643;-34.198;22.084;2023-02-15T03:04:47;99667.17;;;25.19;47.77
63708;BME280;67643;-34.198;22.084;2023-02-15T03:07:21;99667.61;;;25.45;47.29
63708;BME280;67643;-34.198;22.084;2023-02-15T03:09:52;99669.40;;;25.12;47.79
63708;BME280;67643;-34.198;22.084;2023-02-15T03:12:25;99672.19;;;25.07;47.73
63708;BME280;67643;-34.198;22.084;2023-02-15T03:14:59;99674.23;;;25.11;47.63
63708;BME280;67643;-34.198;22.084;2023-02-15T03:17:32;99671.67;;;25.07;47.26
63708;BME280;67643;-34.198;22.084;2023-02-15T03:20:05;99668.83;;;25.11;47.49
63708;BME280;67643;-34.198;22.084;2023-02-15T03:22:37;99667.97;;;25.30;47.19
63708;BME280;67643;-34.198;22.084;2023-02-15T03:25:10;99666.68;;;25.11;47.39
63708;BME280;67643;-34.198;22.084;2023-02-15T03:27:44;99671.14;;;25.56;47.09
63708;BME280;67643;-34.198;22.084;2023-02-15T03:30:15;99674.57;;;25.44;47.05
63708;BME280;67643;-34.198;22.084;2023-02-15T03:32:47;99675.94;;;24.98;47.59
63708;BME280;67643;-34.198;22.084;2023-02-15T03:35:16;99673.39;;;25.37;47.15
63708;BME280;67643;-34.198;22.084;2023-02-15T03:37:48;99678.14;;;25.39;47.04
63708;BME280;67643;-34.198;22.084;2023-02-15T03:40:23;99679.58;;;25.32;47.19
63708;BME280;67643;-34.198;22.084;2023-02-15T03:43:00;99683.30;;;25.41;47.10
63708;BME280;67643;-34.198;22.084;2023-02-15T03:45:31;99687.88;;;25.50;47.32
63708;BME280;67643;-34.198;22.084;2023-02-15T03:48:02;99692.88;;;25.21;47.45
63708;BME280;67643;-34.198;22.084;2023-02-15T03:50:33;99696.58;;;25.15;47.53
63708;BME280;67643;-34.198;22.084;2023-02-15T03:53:06;99699.17;;;25.38;47.13
63708;BME280;67643;-34.198;22.084;2023-02-15T03:55:37;99702.52;;;25.28;47.69
63708;BME280;67643;-34.198;22.084;2023-02-15T03:58:06;99706.55;;;25.34;47.30
63708;BME280;67643;-34.198;22.084;2023-02-15T04:00:37;99705.58;;;24.91;47.95
63708;BME280;67643;-34.198;22.084;2023-02-15T06:05:37;99759.69;;;21.85;65.23
63708;BME280;67643;-34.198;22.084;2023-02-15T06:08:06;99761.09;;;23.20;61.14
63708;BME280;67643;-34.198;22.084;2023-02-15T06:10:34;99755.95;;;24.12;58.02
63708;BME280;67643;-34.198;22.084;2023-02-15T06:13:03;99755.95;;;23.91;56.96
63708;BME280;67643;-34.198;22.084;2023-02-15T06:15:31;99762.69;;;24.59;55.04
63708;BME280;67643;-34.198;22.084;2023-02-15T06:18:00;99766.42;;;25.22;53.78
63708;BME280;67643;-34.198;22.084;2023-02-15T06:20:28;99764.93;;;24.97;53.72
63708;BME280;67643;-34.198;22.084;2023-02-15T06:22:57;99762.09;;;25.19;53.01
63708;BME280;67643;-34.198;22.084;2023-02-15T06:25:25;99757.69;;;25.30;52.76
63708;BME280;67643;-34.198;22.084;2023-02-15T06:27:54;99754.81;;;25.52;52.01
63708;BME280;67643;-34.198;22.084;2023-02-15T06:30:22;99755.47;;;25.25;52.44
63708;BME280;67643;-34.198;22.084;2023-02-15T06:32:50;99759.31;;;25.53;52.21
63708;BME280;67643;-34.198;22.084;2023-02-15T06:35:19;99761.26;;;25.23;52.24
63708;BME280;67643;-34.198;22.084;2023-02-15T06:37:48;99766.88;;;25.36;52.56
63708;BME280;67643;-34.198;22.084;2023-02-15T06:40:18;99768.44;;;25.28;52.67
63708;BME280;67643;-34.198;22.084;2023-02-15T06:42:46;99770.89;;;25.55;52.65
63708;BME280;67643;-34.198;22.084;2023-02-15T06:45:15;99767.66;;;25.62;52.58
63708;BME280;67643;-34.198;22.084;2023-02-15T06:47:43;99763.15;;;25.40;52.24
63708;BME280;67643;-34.198;22.084;2023-02-15T06:50:13;99766.02;;;25.55;52.92
63708;BME280;67643;-34.198;22.084;2023-02-15T06:52:41;99765.83;;;25.42;52.29
63708;BME280;67643;-34.198;22.084;2023-02-15T06:55:10;99771.36;;;25.15;52.68
63708;BME280;67643;-34.198;22.084;2023-02-15T06:57:38;99772.45;;;25.22;53.09
63708;BME280;67643;-34.198;22.084;2023-02-15T07:00:08;99770.80;;;25.51;51.92
63708;BME280;67643;-34.198;22.084;2023-02-15T07:02:37;99773.16;;;25.25;53.23
63708;BME280;67643;-34.198;22.084;2023-02-15T07:05:05;99774.73;;;25.33;52.67
63708;BME280;67643;-34.198;22.084;2023-02-15T07:07:35;99774.94;;;25.49;52.83
63708;BME280;67643;-34.198;22.084;2023-02-15T07:10:05;99770.31;;;25.36;53.05
63708;BME280;67643;-34.198;22.084;2023-02-15T07:12:34;99769.61;;;24.98;52.90
63708;BME280;67643;-34.198;22.084;2023-02-15T07:15:03;99765.05;;;25.20;52.79
63708;BME280;67643;-34.198;22.084;2023-02-15T07:17:32;99767.04;;;25.61;52.46
63708;BME280;67643;-34.198;22.084;2023-02-15T07:20:00;99764.62;;;25.46;52.83
63708;BME280;67643;-34.198;22.084;2023-02-15T07:22:28;99759.17;;;25.28;53.04
63708;BME280;67643;-34.198;22.084;2023-02-15T07:24:56;99760.39;;;25.73;52.29
63708;BME280;67643;-34.198;22.084;2023-02-15T07:27:25;99760.64;;;26.03;51.69
63708;BME280;67643;-34.198;22.084;2023-02-15T07:29:53;99760.93;;;25.75;52.52
63708;BME280;67643;-34.198;22.084;2023-02-15T07:32:21;99764.70;;;25.45;52.63
63708;BME280;67643;-34.198;22.084;2023-02-15T07:34:49;99766.14;;;25.47;53.41
63708;BME280;67643;-34.198;22.084;2023-02-15T07:37:17;99770.67;;;25.27;52.71
63708;BME280;67643;-34.198;22.084;2023-02-15T07:39:46;99772.43;;;25.36;52.97
63708;BME280;67643;-34.198;22.084;2023-02-15T07:42:14;99776.54;;;25.31;53.32
63708;BME280;67643;-34.198;22.084;2023-02-15T07:44:42;99779.67;;;25.18;53.10
63708;BME280;67643;-34.198;22.084;2023-02-15T07:47:10;99781.69;;;25.15;52.58
63708;BME280;67643;-34.198;22.084;2023-02-15T07:49:39;99785.18;;;24.99;53.28
63708;BME280;67643;-34.198;22.084;2023-02-15T07:52:07;99785.78;;;25.14;53.01
63708;BME280;67643;-34.198;22.084;2023-02-15T07:54:36;99787.12;;;25.48;52.35
63708;BME280;67643;-34.198;22.084;2023-02-15T07:57:04;99787.81;;;25.44;52.34
63708;BME280;67643;-34.198;22.084;2023-02-15T07:59:33;99789.25;;;25.56;51.64
63708;BME280;67643;-34.198;22.084;2023-02-15T08:02:01;99789.57;;;25.79;51.98
63708;BME280;67643;-34.198;22.084;2023-02-15T08:04:29;99788.38;;;25.33;51.89
63708;BME280;67643;-34.198;22.084;2023-02-15T08:06:58;99789.29;;;24.86;53.69
63708;BME280;67643;-34.198;22.084;2023-02-15T08:09:27;99788.09;;;25.40;52.26
63708;BME280;67643;-34.198;22.084;2023-02-15T08:11:56;99791.06;;;25.27;52.44
63708;BME280;67643;-34.198;22.084;2023-02-15T08:14:26;99793.98;;;25.35;52.25
63708;BME280;67643;-34.198;22.084;2023-02-15T08:16:58;99792.67;;;25.23;52.18
63708;BME280;67643;-34.198;22.084;2023-02-15T08:19:28;99791.76;;;25.16;52.30
63708;BME280;67643;-34.198;22.084;2023-02-15T08:21:59;99795.02;;;25.52;52.17
63708;BME280;67643;-34.198;22.084;2023-02-15T08:24:29;99790.36;;;25.34;52.09
63708;BME280;67643;-34.198;22.084;2023-02-15T08:26:59;99791.91;;;25.62;51.87
63708;BME280;67643;-34.198;22.084;2023-02-15T08:29:28;99788.75;;;25.08;52.13
63708;BME280;67643;-34.198;22.084;2023-02-15T08:31:58;99791.06;;;25.29;51.88
63708;BME280;67643;-34.198;22.084;2023-02-15T08:34:27;99790.98;;;25.41;51.70
63708;BME280;67643;-34.198;22.084;2023-02-15T08:36:56;99789.03;;;25.62;51.42
63708;BME280;67643;-34.198;22.084;2023-02-15T08:39:25;99788.76;;;25.42;51.90
63708;BME280;67643;-34.198;22.084;2023-02-15T08:41:54;99787.60;;;25.42;51.87
63708;BME280;67643;-34.198;22.084;2023-02-15T08:44:22;99788.37;;;25.61;52.40
63708;BME280;67643;-34.198;22.084;2023-02-15T08:46:51;99784.53;;;26.33;51.24
63708;BME280;67643;-34.198;22.084;2023-02-15T08:49:21;99779.65;;;25.89;51.33
63708;BME280;67643;-34.198;22.084;2023-02-15T08:51:50;99781.68;;;25.28;52.92
63708;BME280;67643;-34.198;22.084;2023-02-15T08:54:20;99784.36;;;25.58;52.58
63708;BME280;67643;-34.198;22.084;2023-02-15T08:56:49;99785.08;;;25.75;52.08
63708;BME280;67643;-34.198;22.084;2023-02-15T08:59:19;99785.53;;;25.63;51.66
63708;BME280;67643;-34.198;22.084;2023-02-15T09:01:49;99786.60;;;26.16;51.08
63708;BME280;67643;-34.198;22.084;2023-02-15T09:04:19;99788.43;;;26.17;50.84
63708;BME280;67643;-34.198;22.084;2023-02-15T09:06:49;99793.36;;;26.22;50.02
63708;BME280;67643;-34.198;22.084;2023-02-15T09:09:18;99790.38;;;24.94;52.33
63708;BME280;67643;-34.198;22.084;2023-02-15T09:11:49;99791.80;;;25.45;51.97
63708;BME280;67643;-34.198;22.084;2023-02-15T09:14:19;99789.61;;;25.87;51.02
63708;BME280;67643;-34.198;22.084;2023-02-15T09:16:48;99787.78;;;26.07;50.77
63708;BME280;67643;-34.198;22.084;2023-02-15T09:19:18;99783.10;;;25.36;51.91
63708;BME280;67643;-34.198;22.084;2023-02-15T09:21:47;99779.49;;;25.40;51.84
63708;BME280;67643;-34.198;22.084;2023-02-15T09:24:17;99781.37;;;26.35;50.85
63708;BME280;67643;-34.198;22.084;2023-02-15T09:26:47;99780.89;;;26.21;50.81
63708;BME280;67643;-34.198;22.084;2023-02-15T09:29:18;99780.92;;;26.51;50.49
63708;BME280;67643;-34.198;22.084;2023-02-15T09:31:49;99785.85;;;26.51;50.27
63708;BME280;67643;-34.198;22.084;2023-02-15T09:34:20;99782.04;;;26.60;50.45
63708;BME280;67643;-34.198;22.084;2023-02-15T09:36:50;99779.18;;;26.61;49.66
63708;BME280;67643;-34.198;22.084;2023-02-15T09:39:20;99777.75;;;27.18;49.39
63708;BME280;67643;-34.198;22.084;2023-02-15T09:42:06;99775.62;;;26.10;50.70
63708;BME280;67643;-34.198;22.084;2023-02-15T09:44:52;99776.62;;;26.17;50.32
63708;BME280;67643;-34.198;22.084;2023-02-15T09:47:40;99772.81;;;25.07;51.87
63708;BME280;67643;-34.198;22.084;2023-02-15T09:50:17;99767.98;;;25.95;50.82
63708;BME280;67643;-34.198;22.084;2023-02-15T09:52:59;99767.60;;;25.76;51.65
63708;BME280;67643;-34.198;22.084;2023-02-15T09:55:40;99766.69;;;26.04;50.76
63708;BME280;67643;-34.198;22.084;2023-02-15T09:58:15;99758.41;;;25.80;50.97
63708;BME280;67643;-34.198;22.084;2023-02-15T10:00:57;99756.57;;;26.11;50.84
63708;BME280;67643;-34.198;22.084;2023-02-15T10:03:39;99756.08;;;25.84;50.96
63708;BME280;67643;-34.198;22.084;2023-02-15T10:06:27;99757.65;;;26.19;50.34
63708;BME280;67643;-34.198;22.084;2023-02-15T10:09:10;99757.92;;;25.84;50.74
63708;BME280;67643;-34.198;22.084;2023-02-15T10:11:53;99756.74;;;26.65;50.08
63708;BME280;67643;-34.198;22.084;2023-02-15T10:14:37;99757.79;;;25.94;50.34
63708;BME280;67643;-34.198;22.084;2023-02-15T10:17:19;99755.95;;;25.77;50.94
63708;BME280;67643;-34.198;22.084;2023-02-15T10:20:02;99755.17;;;25.94;51.15
63708;BME280;67643;-34.198;22.084;2023-02-15T10:22:45;99753.37;;;26.36;50.04
63708;BME280;67643;-34.198;22.084;2023-02-15T10:25:25;99755.21;;;26.47;49.92
63708;BME280;67643;-34.198;22.084;2023-02-15T10:27:58;99757.95;;;26.98;48.79
63708;BME280;67643;-34.198;22.084;2023-02-15T10:30:36;99759.11;;;26.99;49.08
63708;BME280;67643;-34.198;22.084;2023-02-15T10:33:13;99754.14;;;26.37;50.08
63708;BME280;67643;-34.198;22.084;2023-02-15T10:35:51;99753.36;;;26.67;49.67
63708;BME280;67643;-34.198;22.084;2023-02-15T10:38:29;99749.84;;;26.62;49.84
63708;BME280;67643;-34.198;22.084;2023-02-15T10:41:15;99746.47;;;25.48;51.33
63708;BME280;67643;-34.198;22.084;2023-02-15T10:44:00;99745.34;;;26.69;49.38
63708;BME280;67643;-34.198;22.084;2023-02-15T10:46:51;99741.93;;;26.78;49.97
63708;BME280;67643;-34.198;22.084;2023-02-15T10:49:37;99742.13;;;25.65;50.70
63708;BME280;67643;-34.198;22.084;2023-02-15T10:52:21;99746.83;;;26.17;49.89
63708;BME280;67643;-34.198;22.084;2023-02-15T10:55:00;99748.57;;;26.29;50.27
63708;BME280;67643;-34.198;22.084;2023-02-15T10:57:38;99746.92;;;26.01;50.33
63708;BME280;67643;-34.198;22.084;2023-02-15T11:00:13;99744.71;;;26.49;49.83
63708;BME280;67643;-34.198;22.084;2023-02-15T11:03:05;99741.67;;;26.50;49.90
63708;BME280;67643;-34.198;22.084;2023-02-15T11:05:49;99746.55;;;26.39;50.03
63708;BME280;67643;-34.198;22.084;2023-02-15T11:08:25;99750.16;;;25.59;51.00
63708;BME280;67643;-34.198;22.084;2023-02-15T11:11:00;99753.46;;;26.06;50.22
63708;BME280;67643;-34.198;22.084;2023-02-15T11:13:34;99750.35;;;25.61;50.60
63708;BME280;67643;-34.198;22.084;2023-02-15T11:16:08;99752.32;;;25.49;51.34
63708;BME280;67643;-34.198;22.084;2023-02-15T11:18:41;99750.00;;;26.56;49.22
63708;BME280;67643;-34.198;22.084;2023-02-15T11:21:17;99748.23;;;26.18;49.60
63708;BME280;67643;-34.198;22.084;2023-02-15T11:23:48;99746.16;;;26.72;48.81
63708;BME280;67643;-34.198;22.084;2023-02-15T11:26:21;99747.86;;;26.55;49.25
63708;BME280;67643;-34.198;22.084;2023-02-15T11:28:56;99746.61;;;25.52;51.02
63708;BME280;67643;-34.198;22.084;2023-02-15T11:31:26;99750.11;;;26.19;50.01
63708;BME280;67643;-34.198;22.084;2023-02-15T11:34:01;99747.77;;;25.79;51.13
63708;BME280;67643;-34.198;22.084;2023-02-15T11:36:36;99747.38;;;26.12;49.87
63708;BME280;67643;-34.198;22.084;2023-02-15T11:39:10;99746.75;;;26.23;50.16
63708;BME280;67643;-34.198;22.084;2023-02-15T11:41:41;99744.66;;;26.39;50.22
63708;BME280;67643;-34.198;22.084;2023-02-15T11:44:15;99743.47;;;26.28;50.00
63708;BME280;67643;-34.198;22.084;2023-02-15T11:46:45;99739.75;;;25.80;51.20
63708;BME280;67643;-34.198;22.084;2023-02-15T11:49:22;99739.77;;;25.82;50.88
63708;BME280;67643;-34.198;22.084;2023-02-15T11:51:52;99734.60;;;26.42;49.61
63708;BME280;67643;-34.198;22.084;2023-02-15T11:54:23;99734.90;;;25.89;51.30
63708;BME280;67643;-34.198;22.084;2023-02-15T11:56:55;99735.26;;;26.36;49.78
63708;BME280;67643;-34.198;22.084;2023-02-15T11:59:31;99733.62;;;26.25;49.99
63708;BME280;67643;-34.198;22.084;2023-02-15T14:08:42;99695.37;;;21.94;62.96
63708;BME280;67643;-34.198;22.084;2023-02-15T14:11:19;99698.43;;;23.96;56.89
63708;BME280;67643;-34.198;22.084;2023-02-15T14:14:03;99704.24;;;24.24;54.97
63708;BME280;67643;-34.198;22.084;2023-02-15T14:16:45;99701.34;;;24.91;53.49
63708;BME280;67643;-34.198;22.084;2023-02-15T14:19:24;99701.11;;;25.19;52.72
63708;BME280;67643;-34.198;22.084;2023-02-15T14:22:00;99697.37;;;24.55;53.75
63708;BME280;67643;-34.198;22.084;2023-02-15T14:24:36;99701.07;;;25.05;52.36
63708;BME280;67643;-34.198;22.084;2023-02-15T14:27:16;99704.15;;;25.02;52.30
63708;BME280;67643;-34.198;22.084;2023-02-15T14:29:51;99697.39;;;24.77;53.12
63708;BME280;67643;-34.198;22.084;2023-02-15T14:32:27;99699.39;;;25.05;51.56
63708;BME280;67643;-34.198;22.084;2023-02-15T14:35:00;99698.82;;;25.44;51.40
63708;BME280;67643;-34.198;22.084;2023-02-15T14:37:39;99692.78;;;25.00;51.19
63708;BME280;67643;-34.198;22.084;2023-02-15T14:40:18;99698.51;;;24.21;53.40
63708;BME280;67643;-34.198;22.084;2023-02-15T14:42:53;99700.99;;;24.95;52.73
63708;BME280;67643;-34.198;22.084;2023-02-15T14:45:28;99699.44;;;24.23;54.22
63708;BME280;67643;-34.198;22.084;2023-02-15T14:48:06;99702.70;;;24.04;54.78
63708;BME280;67643;-34.198;22.084;2023-02-15T14:50:40;99705.73;;;24.44;54.46
63708;BME280;67643;-34.198;22.084;2023-02-15T14:53:22;99709.26;;;24.56;53.77
63708;BME280;67643;-34.198;22.084;2023-02-15T14:56:14;99711.17;;;24.10;54.52
63708;BME280;67643;-34.198;22.084;2023-02-15T14:58:58;99708.91;;;24.33;54.21
63708;BME280;67643;-34.198;22.084;2023-02-15T15:01:28;99705.82;;;24.57;54.25
63708;BME280;67643;-34.198;22.084;2023-02-15T15:04:00;99703.62;;;24.39;54.22
63708;BME280;67643;-34.198;22.084;2023-02-15T15:06:32;99705.51;;;23.96;55.54
63708;BME280;67643;-34.198;22.084;2023-02-15T15:09:12;99714.87;;;24.32;54.23
63708;BME280;67643;-34.198;22.084;2023-02-15T15:11:45;99708.66;;;23.86;54.87
63708;BME280;67643;-34.198;22.084;2023-02-15T15:14:40;99708.40;;;24.83;53.41
63708;BME280;67643;-34.198;22.084;2023-02-15T15:17:13;99707.90;;;23.90;55.00
63708;BME280;67643;-34.198;22.084;2023-02-15T15:20:40;99709.72;;;24.48;53.73
63708;BME280;67643;-34.198;22.084;2023-02-15T15:23:40;99716.25;;;24.57;53.45
63708;BME280;67643;-34.198;22.084;2023-02-15T15:26:31;99714.26;;;24.60;53.22
63708;BME280;67643;-34.198;22.084;2023-02-15T15:29:01;99716.21;;;24.17;52.88
63708;BME280;67643;-34.198;22.084;2023-02-15T15:31:43;99714.98;;;24.94;51.47
63708;BME280;67643;-34.198;22.084;2023-02-15T15:34:22;99712.05;;;24.63;51.84
63708;BME280;67643;-34.198;22.084;2023-02-15T15:37:45;99713.92;;;24.76;51.68
63708;BME280;67643;-34.198;22.084;2023-02-15T15:40:33;99719.44;;;24.12;52.53
63708;BME280;67643;-34.198;22.084;2023-02-15T15:44:05;99722.85;;;24.59;51.29
63708;BME280;67643;-34.198;22.084;2023-02-15T15:46:58;99725.81;;;25.28;50.80
63708;BME280;67643;-34.198;22.084;2023-02-15T15:49:32;99730.79;;;24.55;52.12
63708;BME280;67643;-34.198;22.084;2023-02-15T15:52:02;99731.65;;;24.68;51.84
63708;BME280;67643;-34.198;22.084;2023-02-15T15:54:31;99732.13;;;24.38;52.25
63708;BME280;67643;-34.198;22.084;2023-02-15T15:57:03;99733.41;;;24.38;53.18
63708;BME280;67643;-34.198;22.084;2023-02-15T15:59:33;99735.76;;;24.17;53.08
63708;BME280;67643;-34.198;22.084;2023-02-15T16:02:05;99739.19;;;23.94;53.85
63708;BME280;67643;-34.198;22.084;2023-02-15T16:04:35;99739.83;;;24.02;53.31
63708;BME280;67643;-34.198;22.084;2023-02-15T16:07:21;99741.04;;;24.12;53.48
63708;BME280;67643;-34.198;22.084;2023-02-15T16:10:00;99742.56;;;24.11;53.54
63708;BME280;67643;-34.198;22.084;2023-02-15T16:12:30;99744.00;;;24.38;53.06
63708;BME280;67643;-34.198;22.084;2023-02-15T16:15:02;99743.90;;;24.43;52.97
63708;BME280;67643;-34.198;22.084;2023-02-15T16:17:33;99751.93;;;23.69;54.34
63708;BME280;67643;-34.198;22.084;2023-02-15T16:20:06;99746.84;;;23.79;53.73
63708;BME280;67643;-34.198;22.084;2023-02-15T16:22:36;99753.88;;;23.52;53.40
63708;BME280;67643;-34.198;22.084;2023-02-15T16:25:23;99757.99;;;23.82;53.41
63708;BME280;67643;-34.198;22.084;2023-02-15T16:28:05;99759.47;;;23.61;53.36
63708;BME280;67643;-34.198;22.084;2023-02-15T16:30:36;99756.26;;;23.85;52.50
63708;BME280;67643;-34.198;22.084;2023-02-15T16:33:07;99759.79;;;23.94;52.56
63708;BME280;67643;-34.198;22.084;2023-02-15T16:35:37;99757.00;;;23.98;51.94
63708;BME280;67643;-34.198;22.084;2023-02-15T16:38:09;99764.38;;;24.03;52.18
63708;BME280;67643;-34.198;22.084;2023-02-15T16:40:45;99769.65;;;23.76;52.56
63708;BME280;67643;-34.198;22.084;2023-02-15T16:43:19;99769.73;;;23.92;52.22
63708;BME280;67643;-34.198;22.084;2023-02-15T16:45:51;99779.75;;;23.17;53.89
63708;BME280;67643;-34.198;22.084;2023-02-15T16:48:26;99780.12;;;23.55;52.44
63708;BME280;67643;-34.198;22.084;2023-02-15T16:50:56;99786.69;;;23.56;52.86
63708;BME280;67643;-34.198;22.084;2023-02-15T16:53:27;99785.13;;;23.34;52.67
63708;BME280;67643;-34.198;22.084;2023-02-15T16:55:57;99790.68;;;23.22;52.87
63708;BME280;67643;-34.198;22.084;2023-02-15T16:58:31;99789.59;;;23.43;52.01
63708;BME280;67643;-34.198;22.084;2023-02-15T17:01:07;99799.28;;;23.25;52.76
63708;BME280;67643;-34.198;22.084;2023-02-15T17:03:37;99806.42;;;23.38;53.01
63708;BME280;67643;-34.198;22.084;2023-02-15T17:06:19;99811.04;;;23.09;52.97
63708;BME280;67643;-34.198;22.084;2023-02-15T17:08:48;99814.98;;;23.45;52.14
63708;BME280;67643;-34.198;22.084;2023-02-15T17:11:19;99813.03;;;23.35;52.17
63708;BME280;67643;-34.198;22.084;2023-02-15T17:14:21;99815.05;;;23.43;51.49
63708;BME280;67643;-34.198;22.084;2023-02-15T17:16:58;99813.73;;;23.87;50.72
63708;BME280;67643;-34.198;22.084;2023-02-15T17:19:29;99817.00;;;23.74;50.98
63708;BME280;67643;-34.198;22.084;2023-02-15T17:22:00;99819.64;;;24.07;50.43
63708;BME280;67643;-34.198;22.084;2023-02-15T17:24:36;99822.85;;;23.83;50.90
63708;BME280;67643;-34.198;22.084;2023-02-15T17:27:12;99825.50;;;23.92;50.81